Time;durP1;ratioP1;P1;durP2;ratioP2;P2;SDS_P1;SDS_P2;PMS_P1;PMS_P2;Temp;Humidity;BMP_temperature;BMP_pressure;BME280_temperature;BME280_humidity;BME280_pressure;Samples;Min_cycle;Max_cycle;Signal;HPM_P1;HPM_P2
2024/01/24 00:01:54;;;;;;;;;0.00;0.00;;;;;-144.24;100.00;51565.41;5078912;28;66749;-69
2024/01/24 00:04:22;;;;;;;;;0.00;0.00;;;;;-144.24;100.00;51350.81;5079044;28;62857;-71
2024/01/24 00:06:47;;;;;;;;;0.00;0.00;;;;;-144.24;100.00;51188.34;5080142;28;45283;-74
2024/01/24 00:09:12;;;;;;;;;0.00;0.00;;;;;-144.24;100.00;51108.13;5079260;28;45803;-71
2024/01/24 00:11:38;;;;;;;;;0.00;0.00;;;;;-144.24;100.00;51029.91;5078853;28;70245;-70
2024/01/24 00:14:03;;;;;;;;;0.00;0.00;;;;;-144.24;100.00;51049.97;5072809;28;53981;-70
2024/01/24 00:16:28;;;;;;;;;0.00;0.00;;;;;-144.24;100.00;50985.78;5079575;28;45577;-71
2024/01/24 00:18:54;;;;;;;;;2.33;0.00;;;;;-144.24;100.00;50807.31;5077919;28;59289;-73
2024/01/24 00:21:19;;;;;;;;;0.00;0.00;;;;;-144.24;100.00;50490.47;5076698;28;70490;-70
2024/01/24 00:23:44;;;;;;;;;0.00;0.00;;;;;-144.24;100.00;50464.41;5078824;28;45396;-74
2024/01/24 00:26:09;;;;;;;;;0.00;0.00;;;;;-144.24;100.00;50464.41;5078752;28;49719;-71
2024/01/24 00:28:35;;;;;;;;;0.00;0.00;;;;;-144.24;100.00;50394.22;5077704;28;74435;-73
2024/01/24 00:31:00;;;;;;;;;0.00;0.00;;;;;-144.24;100.00;50460.41;5079251;28;51747;-71
2024/01/24 00:33:29;;;;;;;;;0.00;0.00;;;;;-144.24;100.00;50203.75;5060357;28;65468;-70
2024/01/24 00:35:54;;;;;;;;;0.00;0.00;;;;;-144.24;100.00;50221.78;5061427;28;45276;-73
2024/01/24 00:38:20;;;;;;;;;0.00;0.00;;;;;-144.24;100.00;50370.16;5079060;28;45712;-72
2024/01/24 00:40:45;;;;;;;;;0.00;0.00;;;;;-144.24;100.00;50245.84;5078421;28;69999;-73
2024/01/24 00:43:10;;;;;;;;;0.00;0.00;;;;;-144.24;100.00;50089.47;5060946;28;45273;-70
2024/01/24 00:45:35;;;;;;;;;0.00;0.00;;;;;-144.24;100.00;50336.09;5078371;28;65588;-74
2024/01/24 00:48:01;;;;;;;;;0.00;0.00;;;;;-144.24;100.00;50223.78;5074999;28;71394;-72
2024/01/24 00:50:26;;;;;;;;;0.00;0.00;;;;;-144.24;100.00;50131.56;5060921;28;45403;-71
2024/01/24 00:52:55;;;;;;;;;0.00;0.00;;;;;-144.24;100.00;50249.88;5060067;28;58564;-71
2024/01/24 00:55:21;;;;;;;;;1.00;0.00;;;;;-144.24;100.00;50562.66;5060948;28;45212;-70
2024/01/24 00:57:46;;;;;;;;;0.00;0.00;;;;;-144.24;100.00;50572.69;5078359;28;46384;-73
2024/01/24 01:00:12;;;;;;;;;0.00;0.00;;;;;-144.24;100.00;50666.94;5077948;28;64071;-71
2024/01/24 01:02:37;;;;;;;;;0.00;0.00;;;;;-144.24;100.00;50883.53;5078193;28;45449;-70
2024/01/24 01:05:04;;;;;;;;;0.00;0.00;;;;;-144.24;100.00;50903.56;5077706;28;67175;-73
2024/01/24 01:07:29;;;;;;;;;0.00;0.00;;;;;-144.24;100.00;50983.78;5078726;28;45412;-73
2024/01/24 01:09:54;;;;;;;;;0.00;0.00;;;;;-144.24;100.00;51128.19;5078839;28;45447;-71
2024/01/24 01:12:20;;;;;;;;;0.00;0.00;;;;;-144.24;100.00;51039.94;5077387;28;67650;-71
2024/01/24 01:14:45;;;;;;;;;0.00;0.00;;;;;-144.24;100.00;51254.53;5071711;28;62942;-71
2024/01/24 01:17:10;;;;;;;;;0.00;0.00;;;;;-144.24;100.00;51459.13;5076911;28;67602;-72
2024/01/24 01:19:36;;;;;;;;;0.00;0.00;;;;;-144.24;100.00;51653.66;5078347;28;45314;-69
2024/01/24 01:22:01;;;;;;;;;0.00;0.00;;;;;-144.24;100.00;51741.94;5077701;28;60584;-71
2024/01/24 01:24:27;;;;;;;;;0.00;0.00;;;;;-144.24;100.00;52040.81;5069343;28;45570;-71
2024/01/24 01:26:52;;;;;;;;;0.00;0.00;;;;;-144.24;100.00;52379.84;5076579;28;71847;-72
2024/01/24 01:29:18;;;;;;;;;0.00;0.00;;;;;-144.24;100.00;52606.53;5077555;28;60107;-72
2024/01/24 01:31:44;;;;;;;;;0.00;0.00;;;;;-144.24;100.00;52815.19;5078377;28;45333;-70
2024/01/24 01:34:09;;;;;;;;;0.00;0.00;;;;;-144.24;100.00;53364.97;5078020;28;59858;-70
2024/01/24 01:36:34;;;;;;;;;0.00;0.00;;;;;-144.24;100.00;52528.28;5077262;28;70617;-71
2024/01/24 01:38:59;;;;;;;;;1.00;0.00;;;;;-144.24;100.00;52933.56;5059897;28;55179;-71
2024/01/24 01:41:25;;;;;;;;;0.00;0.00;;;;;-144.24;100.00;53306.78;5077169;28;61169;-70
2024/01/24 01:43:50;;;;;;;;;0.00;0.00;;;;;-144.24;100.00;53525.53;5077717;28;64003;-70
2024/01/24 01:46:19;;;;;;;;;0.00;0.00;;;;;-144.24;100.00;53828.56;5074455;28;71371;-73
2024/01/24 01:48:44;;;;;;;;;0.00;0.00;;;;;-144.24;100.00;53995.13;5059773;28;45516;-71
2024/01/24 01:51:10;;;;;;;;;0.00;0.00;;;;;-144.24;100.00;54408.59;5073393;28;69626;-70
2024/01/24 01:53:38;;;;;;;;;0.00;0.00;;;;;-144.24;100.00;55038.91;5053905;28;45498;-71
2024/01/24 01:56:15;;;;;;;;;0.00;0.00;;;;;-144.24;100.00;55103.13;5060062;28;45942;-70
2024/01/24 01:58:41;;;;;;;;;0.00;0.00;;;;;-144.24;100.00;55223.59;5077833;28;45442;-71
2024/01/24 02:01:07;;;;;;;;;0.00;0.00;;;;;-144.24;100.00;55454.47;5077704;28;45292;-71
2024/01/24 02:03:33;;;;;;;;;0.00;0.00;;;;;-144.24;100.00;55645.22;5060186;28;45423;-71
2024/01/24 02:05:59;;;;;;;;;0.00;0.00;;;;;-144.24;100.00;55753.63;5077724;28;45365;-71
2024/01/24 02:08:24;;;;;;;;;0.00;0.00;;;;;-144.24;100.00;55858.03;5059424;28;45403;-73
2024/01/24 02:10:49;;;;;;;;;0.00;0.00;;;;;-144.24;100.00;55996.59;5077994;28;45406;-70
2024/01/24 02:13:15;;;;;;;;;0.00;0.00;;;;;-144.24;100.00;55809.84;5057464;28;64331;-71
2024/01/24 02:15:40;;;;;;;;;0.00;0.00;;;;;-144.24;100.00;56000.59;5071486;28;67244;-73
2024/01/24 02:18:06;;;;;;;;;0.00;0.00;;;;;-144.24;100.00;55960.44;5059600;28;45324;-71
2024/01/24 02:20:32;;;;;;;;;0.00;0.00;;;;;-144.24;100.00;55761.66;5077798;28;45370;-71
2024/01/24 02:22:57;;;;;;;;;0.00;0.00;;;;;-144.24;100.00;55526.75;5077243;28;45212;-71
2024/01/24 02:25:22;;;;;;;;;0.00;0.00;;;;;-144.24;100.00;55512.69;5076418;28;67188;-71
2024/01/24 02:27:48;;;;;;;;;0.00;0.00;;;;;-144.24;100.00;55512.69;5076276;28;72766;-70
2024/01/24 02:30:14;;;;;;;;;0.00;0.00;;;;;-144.24;100.00;55289.84;5077110;28;55488;-71
2024/01/24 02:32:39;;;;;;;;;0.00;0.00;;;;;-144.24;100.00;55183.44;5077431;28;45363;-70
2024/01/24 02:35:05;;;;;;;;;0.00;0.00;;;;;-144.24;100.00;55008.78;5077466;28;45762;-72
2024/01/24 02:37:30;;;;;;;;;0.00;0.00;;;;;-144.24;100.00;55077.03;5077493;28;45424;-72
2024/01/24 02:39:56;;;;;;;;;0.00;0.00;;;;;-144.24;100.00;54928.47;5076511;28;61936;-70
2024/01/24 02:42:21;;;;;;;;;0.00;0.00;;;;;-144.24;100.00;54701.66;5076989;28;64520;-73
2024/01/24 02:44:46;;;;;;;;;0.00;0.00;;;;;-144.24;100.00;54615.34;5076064;28;74780;-73
2024/01/24 02:47:12;;;;;;;;;0.00;0.00;;;;;-144.24;100.00;54523.00;5074447;28;57289;-71
2024/01/24 02:49:38;;;;;;;;;0.00;0.00;;;;;-144.24;100.00;54310.22;5076650;28;58822;-71
2024/01/24 02:52:04;;;;;;;;;0.00;0.00;;;;;-144.24;100.00;54350.38;5077642;28;45342;-72
2024/01/24 02:54:29;;;;;;;;;0.00;0.00;;;;;-144.24;100.00;54075.41;5076642;28;45778;-71
2024/01/24 02:56:55;;;;;;;;;0.00;0.00;;;;;-144.24;100.00;53672.00;5075247;28;70386;-71
2024/01/24 02:59:20;;;;;;;;;0.00;0.00;;;;;-144.24;100.00;53401.09;5077071;28;45485;-71
2024/01/24 03:01:45;;;;;;;;;0.00;0.00;;;;;-144.24;100.00;53328.88;5076098;28;65945;-71
2024/01/24 03:04:11;;;;;;;;;0.00;0.00;;;;;-144.24;100.00;53168.34;5076931;28;45375;-72
2024/01/24 03:06:36;;;;;;;;;0.00;0.00;;;;;-144.24;100.00;52921.53;5077055;28;45403;-72
2024/01/24 03:09:03;;;;;;;;;0.00;0.00;;;;;-144.24;100.00;52933.56;5075954;28;66468;-73
2024/01/24 03:11:28;;;;;;;;;0.00;0.00;;;;;-144.24;100.00;52773.06;5077238;28;45545;-71
2024/01/24 03:13:53;;;;;;;;;0.00;0.00;;;;;-144.24;100.00;52492.19;5069348;28;73501;-72
2024/01/24 03:16:19;;;;;;;;;0.00;0.00;;;;;-144.24;100.00;52131.09;5059006;28;45209;-73
2024/01/24 03:18:44;;;;;;;;;0.00;0.00;;;;;-144.24;100.00;51972.59;5074697;28;45421;-71
2024/01/24 03:21:15;;;;;;;;;0.00;0.00;;;;;-144.24;100.00;51753.97;5072720;28;45192;-73
2024/01/24 03:23:40;;;;;;;;;0.00;0.00;;;;;-144.24;100.00;51511.25;5053657;28;47324;-74
2024/01/24 03:26:06;;;;;;;;;0.00;0.00;;;;;-144.24;100.00;51370.88;5075190;28;45374;-70
2024/01/24 03:28:32;;;;;;;;;0.00;0.00;;;;;-144.24;100.00;51162.28;5071244;28;45489;-73
2024/01/24 03:30:58;;;;;;;;;0.00;0.00;;;;;-144.24;100.00;50991.81;5076319;28;45322;-70
2024/01/24 03:33:23;;;;;;;;;0.00;0.00;;;;;-144.24;100.00;50787.25;5071372;28;45272;-71
2024/01/24 03:35:48;;;;;;;;;0.00;0.00;;;;;-144.24;100.00;50322.03;5071838;28;63241;-72
2024/01/24 03:38:14;;;;;;;;;0.00;0.00;;;;;-144.24;100.00;50203.75;5068975;28;53338;-73
2024/01/24 03:40:39;;;;;;;;;0.00;0.00;;;;;-144.24;100.00;50007.25;5067720;28;61694;-73
2024/01/24 03:43:05;;;;;;;;;0.00;0.00;;;;;-144.24;100.00;49953.13;5067056;28;46019;-70
2024/01/24 03:45:31;;;;;;;;;0.00;0.00;;;;;-144.24;100.00;49836.84;5047653;28;45229;-71
2024/01/24 03:47:56;;;;;;;;;0.00;0.00;;;;;-144.24;100.00;49624.31;5064972;28;45307;-73
2024/01/24 03:50:21;;;;;;;;;0.00;0.00;;;;;-144.24;100.00;49403.81;5060824;28;60918;-71
2024/01/24 03:52:46;;;;;;;;;0.00;0.00;;;;;-144.24;100.00;49371.72;5063982;28;67750;-73
2024/01/24 03:55:12;;;;;;;;;0.00;0.00;;;;;-144.24;100.00;49153.22;5078790;28;58228;-70
2024/01/24 03:57:37;;;;;;;;;0.00;0.00;;;;;-144.24;100.00;49151.22;5075211;28;64435;-71
2024/01/24 04:00:05;;;;;;;;;0.00;0.00;;;;;-144.24;100.00;48954.78;5076004;28;45585;-71
2024/01/24 04:02:31;;;;;;;;;0.00;0.00;;;;;-144.24;100.00;49004.91;5071270;28;46568;-71
2024/01/24 04:04:56;;;;;;;;;0.00;0.00;;;;;-144.24;100.00;48926.72;5073552;28;67484;-71
2024/01/24 04:07:21;;;;;;;;;0.00;0.00;;;;;-144.24;100.00;48786.44;5068164;28;63183;-71
2024/01/24 04:09:47;;;;;;;;;0.00;0.00;;;;;-144.24;100.00;48730.31;5069115;28;60381;-75
2024/01/24 04:12:12;;;;;;;;;0.00;0.00;;;;;-144.24;100.00;48670.19;5065231;28;64109;-72
2024/01/24 04:14:37;;;;;;;;;0.00;0.00;;;;;-144.24;100.00;48758.38;5064376;28;63485;-73
2024/01/24 04:17:03;;;;;;;;;0.00;0.00;;;;;-144.24;100.00;48573.97;5063044;28;68827;-71
2024/01/24 04:19:29;;;;;;;;;0.00;0.00;;;;;-144.24;100.00;48497.81;5061108;28;61288;-71
2024/01/24 04:21:54;;;;;;;;;0.00;0.00;;;;;-144.24;100.00;48483.78;5060642;28;47258;-72
2024/01/24 04:24:20;;;;;;;;;0.67;0.00;;;;;-144.24;100.00;48495.81;5071648;28;45188;-71
2024/01/24 04:26:45;;;;;;;;;0.00;0.00;;;;;-144.24;100.00;48325.44;5077142;28;46932;-73
2024/01/24 04:29:11;;;;;;;;;0.00;0.00;;;;;-144.24;100.00;48317.44;5069539;28;45466;-70
2024/01/24 04:31:36;;;;;;;;;0.00;0.00;;;;;-144.24;100.00;48297.41;5076077;28;45609;-73
2024/01/24 04:34:02;;;;;;;;;0.00;0.00;;;;;-144.24;100.00;48415.63;5076387;28;58892;-70
2024/01/24 04:36:27;;;;;;;;;1.00;0.00;;;;;-144.24;100.00;48299.41;5073793;28;45914;-74
2024/01/24 04:38:52;;;;;;;;;0.00;0.00;;;;;-144.24;100.00;48303.41;5072193;28;50765;-73
2024/01/24 04:41:17;;;;;;;;;0.00;0.00;;;;;-144.24;100.00;48072.94;5071610;28;45386;-71
2024/01/24 04:43:43;;;;;;;;;0.00;0.00;;;;;-144.24;100.00;47984.78;5067491;28;65916;-71
2024/01/24 04:46:13;;;;;;;;;0.00;0.00;;;;;-144.24;100.00;47826.47;5071668;28;45470;-71
2024/01/24 04:48:38;;;;;;;;;0.00;0.00;;;;;-144.24;100.00;48135.06;5064583;28;45323;-70
2024/01/24 04:51:03;;;;;;;;;0.00;0.00;;;;;-144.24;100.00;47976.75;5065841;28;46216;-70
2024/01/24 04:53:29;;;;;;;;;0.00;0.00;;;;;-144.24;100.00;47952.72;5060871;28;72334;-71
2024/01/24 04:55:54;;;;;;;;;0.00;0.00;;;;;-144.24;100.00;47986.78;5061642;28;64676;-72
2024/01/24 04:58:19;;;;;;;;;0.00;0.00;;;;;-144.24;100.00;48137.06;5059106;28;63608;-70
2024/01/24 05:00:45;;;;;;;;;0.00;0.00;;;;;-144.24;100.00;48309.41;5068757;28;75666;-74
2024/01/24 05:03:10;;;;;;;;;1.00;0.00;;;;;-144.24;100.00;48343.50;5076829;28;67418;-72
2024/01/24 05:05:35;;;;;;;;;0.00;0.00;;;;;-144.24;100.00;48654.13;5073303;28;60972;-71
2024/01/24 05:08:00;;;;;;;;;1.00;0.00;;;;;-144.24;100.00;48784.41;5075063;28;55701;-73
2024/01/24 05:10:26;;;;;;;;;0.00;0.00;;;;;-144.24;100.00;49071.06;5071200;28;68295;-70
2024/01/24 05:12:52;;;;;;;;;0.00;0.00;;;;;-144.24;100.00;49237.44;5071429;28;45315;-74
2024/01/24 05:15:17;;;;;;;;;0.00;0.00;;;;;-144.24;100.00;49183.31;5069457;28;64126;-71
2024/01/24 05:17:42;;;;;;;;;0.00;0.00;;;;;-144.24;100.00;49315.59;5066282;28;62415;-70
2024/01/24 05:20:09;;;;;;;;;0.00;0.00;;;;;-144.24;100.00;49365.72;5067695;28;46413;-71
2024/01/24 05:22:34;;;;;;;;;1.00;0.00;;;;;-144.24;100.00;49351.69;5062875;28;45299;-71
2024/01/24 05:24:59;;;;;;;;;0.00;0.00;;;;;-144.24;100.00;49391.78;5067098;28;45418;-71
2024/01/24 05:27:24;;;;;;;;;0.00;0.00;;;;;-144.24;100.00;49477.97;5069883;28;67632;-71
2024/01/24 05:29:50;;;;;;;;;0.33;0.00;;;;;-144.24;100.00;49473.97;5070185;28;71837;-73
2024/01/24 05:32:15;;;;;;;;;0.00;0.00;;;;;-144.24;100.00;49445.91;5075209;28;62520;-73
2024/01/24 05:34:40;;;;;;;;;0.00;0.00;;;;;-144.24;100.00;49345.69;5073836;28;57653;-70
2024/01/24 05:37:06;;;;;;;;;0.00;0.00;;;;;-144.24;100.00;49391.78;5071031;28;60597;-72
2024/01/24 05:39:31;;;;;;;;;0.00;0.00;;;;;-144.24;100.00;49427.88;5071184;28;71084;-70
2024/01/24 05:41:56;;;;;;;;;0.00;0.00;;;;;-144.24;100.00;49459.94;5066568;28;66592;-71
2024/01/24 05:44:22;;;;;;;;;1.00;0.00;;;;;-144.24;100.00;49299.56;5070682;28;45775;-71
2024/01/24 05:46:47;;;;;;;;;0.00;0.00;;;;;-144.24;100.00;49395.78;5066649;28;45316;-73
2024/01/24 05:49:13;;;;;;;;;0.00;0.00;;;;;-144.24;100.00;49377.75;5066314;28;75295;-74
2024/01/24 05:51:38;;;;;;;;;0.00;0.00;;;;;-144.24;100.00;49528.09;5060713;28;45180;-71
2024/01/24 05:54:04;;;;;;;;;0.00;0.00;;;;;-144.24;100.00;49886.97;5062346;28;65287;-74
2024/01/24 05:56:29;;;;;;;;;0.00;0.00;;;;;-144.24;100.00;50442.34;5059803;28;45205;-71
2024/01/24 05:58:55;;;;;;;;;0.00;0.00;;;;;-144.24;100.00;51459.13;5058434;28;69894;-73
2024/01/24 06:01:21;;;;;;;;;0.00;0.00;;;;;-144.24;100.00;52409.94;5074002;28;45436;-71
2024/01/24 06:03:46;;;;;;;;;0.00;0.00;;;;;-144.24;100.00;53417.16;5076430;28;45379;-71
2024/01/24 06:06:12;;;;;;;;;0.00;0.00;;;;;-144.24;100.00;54864.25;5074134;28;56262;-72
2024/01/24 06:08:37;;;;;;;;;0.00;0.00;;;;;-144.24;100.00;55476.56;5072952;28;70923;-71
2024/01/24 06:11:02;;;;;;;;;0.00;0.00;;;;;-144.24;100.00;56432.34;5052236;28;45392;-72
2024/01/24 06:13:28;;;;;;;;;0.00;0.00;;;;;-144.24;100.00;57044.91;5071762;28;45263;-71
2024/01/24 06:15:53;;;;;;;;;0.00;0.00;;;;;-144.24;100.00;57531.00;5066187;28;45268;-70
2024/01/24 06:18:19;;;;;;;;;0.00;0.00;;;;;-144.24;100.00;58125.63;5069340;28;45396;-70
2024/01/24 06:20:45;;;;;;;;;1.00;0.00;;;;;-144.24;100.00;58306.47;5063075;28;45417;-72
2024/01/24 06:23:11;;;;;;;;;0.00;0.00;;;;;-144.24;100.00;58648.03;5066223;28;45472;-71
2024/01/24 06:25:36;;;;;;;;;0.00;0.00;;;;;-144.24;100.00;58714.34;5068142;28;45468;-71
2024/01/24 06:28:01;;;;;;;;;0.67;0.00;;;;;-144.24;100.00;58517.44;5063509;28;73112;-72
2024/01/24 06:30:27;;;;;;;;;2.00;0.00;;;;;-144.24;100.00;58746.50;5074403;28;54161;-73
2024/01/24 06:32:52;;;;;;;;;0.00;0.00;;;;;-144.24;100.00;58977.56;5075291;28;45212;-71
2024/01/24 06:35:17;;;;;;;;;0.00;0.00;;;;;-144.24;100.00;59373.47;5051405;28;66604;-71
2024/01/24 06:37:43;;;;;;;;;0.00;0.00;;;;;-144.24;100.00;59685.00;5072776;28;45612;-74
2024/01/24 06:40:09;;;;;;;;;0.00;0.00;;;;;-144.24;100.00;59898.03;5065313;28;61463;-73
2024/01/24 06:42:35;;;;;;;;;0.00;0.00;;;;;-144.24;100.00;60197.53;5071116;28;45213;-71
2024/01/24 06:45:00;;;;;;;;;0.00;0.00;;;;;-144.24;100.00;60513.13;5071996;28;45277;-71
2024/01/24 06:47:26;;;;;;;;;1.00;0.00;;;;;-144.24;100.00;60613.66;5067904;28;47320;-70
2024/01/24 06:49:51;;;;;;;;;1.00;0.00;;;;;-144.24;100.00;60951.41;5060209;28;65091;-71
2024/01/24 06:52:16;;;;;;;;;0.00;0.00;;;;;-144.24;100.00;61072.03;5062188;28;45139;-72
2024/01/24 06:54:42;;;;;;;;;0.00;0.00;;;;;-144.24;100.00;61132.34;5057494;28;64093;-72
2024/01/24 06:57:07;;;;;;;;;0.00;0.00;;;;;-144.24;100.00;61253.00;5063420;28;71238;-71
2024/01/24 06:59:33;;;;;;;;;0.00;0.00;;;;;-144.24;100.00;61329.41;5071240;27;69082;-70
2024/01/24 07:01:59;;;;;;;;;1.00;0.00;;;;;-144.24;100.00;61218.81;5081525;27;46524;-71
2024/01/24 07:04:24;;;;;;;;;0.00;0.00;;;;;-144.24;100.00;61255.00;5078227;27;45484;-70
2024/01/24 07:06:50;;;;;;;;;1.00;0.00;;;;;-144.24;100.00;60947.38;5072924;28;46201;-70
2024/01/24 07:09:15;;;;;;;;;0.00;0.00;;;;;-144.24;100.00;60862.94;5067051;28;68746;-70
2024/01/24 07:11:41;;;;;;;;;0.00;0.00;;;;;-144.24;100.00;60907.16;5080527;27;45291;-70
2024/01/24 07:14:06;;;;;;;;;0.67;0.00;;;;;-144.24;100.00;60788.56;5069796;27;45509;-70
2024/01/24 07:16:32;;;;;;;;;3.00;0.00;;;;;-144.24;100.00;60659.88;5069245;27;72878;-70
2024/01/24 07:18:57;;;;;;;;;1.33;0.33;;;;;-144.24;100.00;60509.13;5069035;27;71530;-71
2024/01/24 07:21:24;;;;;;;;;0.00;0.00;;;;;-144.24;100.00;60432.72;5081352;27;45615;-69
2024/01/24 07:23:49;;;;;;;;;0.00;0.00;;;;;-144.24;100.00;60416.66;5054260;28;45616;-70
2024/01/24 07:26:14;;;;;;;;;1.00;0.00;;;;;-144.24;100.00;60396.53;5071318;28;45445;-71
2024/01/24 07:28:40;;;;;;;;;0.00;0.00;;;;;-144.24;100.00;60249.81;5063044;28;64824;-69
2024/01/24 07:31:06;;;;;;;;;1.00;1.00;;;;;-144.24;100.00;60189.50;5072866;28;68266;-69
2024/01/24 07:33:31;;;;;;;;;3.00;0.00;;;;;-144.24;100.00;60080.94;5073284;27;45366;-71
2024/01/24 07:35:56;;;;;;;;;0.00;0.00;;;;;-144.24;100.00;60155.31;5063978;27;65941;-72
2024/01/24 07:38:22;;;;;;;;;0.00;0.00;;;;;-144.24;100.00;60080.94;5058836;28;60643;-73
2024/01/24 07:40:47;;;;;;;;;2.00;1.00;;;;;-144.24;100.00;60046.78;5057274;28;65302;-69
2024/01/24 07:43:12;;;;;;;;;1.33;0.00;;;;;-144.24;100.00;60095.03;5065292;27;63094;-69
2024/01/24 07:45:37;;;;;;;;;0.00;0.00;;;;;-144.24;100.00;59910.09;5057062;28;67461;-69
2024/01/24 07:48:03;;;;;;;;;0.33;0.00;;;;;-144.24;100.00;59946.28;5057132;28;46011;-71
2024/01/24 07:50:28;;;;;;;;;3.33;1.00;;;;;-144.24;100.00;59867.88;5063217;28;45236;-68
2024/01/24 07:52:54;;;;;;;;;2.00;0.00;;;;;-144.24;100.00;59654.84;5056028;28;59854;-68
2024/01/24 07:55:21;;;;;;;;;2.33;0.33;;;;;-144.24;100.00;59582.47;5053730;28;71769;-68
2024/01/24 07:57:46;;;;;;;;;4.67;1.00;;;;;-144.24;100.00;59369.44;5063231;27;45239;-69
2024/01/24 08:00:16;;;;;;;;;5.00;1.00;;;;;-144.24;100.00;59140.34;5068781;27;63757;-69
2024/01/24 08:02:43;;;;;;;;;2.00;1.00;;;;;-144.24;100.00;58873.09;5069377;27;45728;-71
2024/01/24 08:05:08;;;;;;;;;0.33;0.00;;;;;-144.24;100.00;58640.00;5067593;28;46656;-70
2024/01/24 08:07:36;;;;;;;;;1.33;1.00;;;;;-144.24;100.00;58694.25;5064079;28;66254;-70
2024/01/24 08:10:02;;;;;;;;;3.67;1.00;;;;;-144.24;100.00;58521.44;5068577;28;45401;-69
2024/01/24 08:12:27;;;;;;;;;5.00;0.67;;;;;-144.24;100.00;58250.22;5068606;27;45940;-68
2024/01/24 08:14:53;;;;;;;;;1.00;0.00;;;;;-144.24;100.00;58051.31;5066679;28;68060;-68
2024/01/24 08:17:18;;;;;;;;;2.33;1.00;;;;;-144.24;100.00;57834.34;5067253;27;45371;-69
2024/01/24 08:19:44;;;;;;;;;1.00;1.00;;;;;-144.24;100.00;57782.09;5072263;27;68660;-69
2024/01/24 08:22:10;;;;;;;;;1.33;1.00;;;;;-144.24;100.00;57820.28;5072888;27;45189;-69
2024/01/24 08:24:35;;;;;;;;;4.67;1.00;;;;;-144.24;100.00;57776.06;5071544;27;46569;-69
2024/01/24 08:27:01;;;;;;;;;1.67;0.33;;;;;-144.24;100.00;57575.19;5056244;28;60752;-69
2024/01/24 08:29:26;;;;;;;;;2.00;2.00;;;;;-144.24;100.00;57587.25;5068671;28;45335;-71
2024/01/24 08:31:52;;;;;;;;;6.67;0.67;;;;;-144.24;100.00;57553.09;5066387;27;45602;-71
2024/01/24 08:34:17;;;;;;;;;1.00;1.00;;;;;-144.24;100.00;57273.88;5072983;28;46438;-69
2024/01/24 08:36:43;;;;;;;;;3.00;1.00;;;;;-144.24;100.00;57205.59;5072643;27;45880;-68
2024/01/24 08:39:08;;;;;;;;;5.00;1.00;;;;;-144.24;100.00;56882.22;5071576;27;45504;-70
2024/01/24 08:41:34;;;;;;;;;2.33;1.00;;;;;-144.24;100.00;56751.66;5069866;27;45643;-70
2024/01/24 08:43:59;;;;;;;;;5.33;1.00;;;;;-144.24;100.00;56665.31;5067456;27;72071;-71
2024/01/24 08:46:25;;;;;;;;;0.67;0.67;;;;;-144.24;100.00;56368.09;5061579;28;45636;-70
2024/01/24 08:48:51;;;;;;;;;2.33;1.00;;;;;-144.24;100.00;56189.38;5071079;27;45461;-70
2024/01/24 08:51:16;;;;;;;;;2.00;0.67;;;;;-144.24;100.00;56026.72;5065360;28;45438;-70
2024/01/24 08:53:42;;;;;;;;;3.67;1.00;;;;;-144.24;100.00;55841.97;5069196;27;47456;-70
2024/01/24 08:56:09;;;;;;;;;4.33;2.67;;;;;-144.24;100.00;55593.00;5069950;28;68383;-70
2024/01/24 08:58:36;;;;;;;;;7.00;2.00;;;;;-144.24;100.00;55137.25;5064272;27;45431;-69
2024/01/24 09:01:01;;;;;;;;;9.33;2.00;;;;;-144.24;100.00;54896.38;5075109;27;45638;-71
2024/01/24 09:03:27;;;;;;;;;3.67;1.33;;;;;-144.24;100.00;54484.84;5072425;27;64722;-70
2024/01/24 09:05:52;;;;;;;;;5.00;1.00;;;;;-144.24;100.00;53971.03;5061803;28;66341;-72
2024/01/24 09:08:17;;;;;;;;;5.00;2.00;;;;;-144.24;100.00;53461.31;5073781;28;50314;-72
2024/01/24 09:10:43;;;;;;;;;3.33;1.67;;;;;-144.24;100.00;53220.50;5062246;28;61208;-71
2024/01/24 09:13:08;;;;;;;;;9.00;3.00;;;;;-144.24;100.00;53290.75;5073731;28;46333;-73
2024/01/24 09:15:34;;;;;;;;;5.33;1.00;;;;;-144.24;100.00;52897.47;5066015;28;70984;-71
2024/01/24 09:17:59;;;;;;;;;7.00;3.00;;;;;-144.24;100.00;52193.25;5071804;28;45335;-71
2024/01/24 09:20:25;;;;;;;;;4.00;3.33;;;;;-144.24;100.00;51749.94;5068226;28;45638;-70
2024/01/24 09:22:50;;;;;;;;;9.67;2.00;;;;;-144.24;100.00;51691.78;5072721;28;64109;-71
2024/01/24 09:25:16;;;;;;;;;5.00;2.00;;;;;-144.24;100.00;51539.34;5072987;27;45415;-71
2024/01/24 09:27:42;;;;;;;;;5.67;2.67;;;;;-144.24;100.00;51192.38;5064237;27;45486;-72
2024/01/24 09:30:07;;;;;;;;;4.33;2.00;;;;;-144.24;100.00;50941.69;5063776;28;67777;-73
2024/01/24 09:32:33;;;;;;;;;6.33;3.00;;;;;-144.24;100.00;50257.88;5073731;28;46317;-72
2024/01/24 09:34:58;;;;;;;;;6.00;2.33;;;;;-144.24;100.00;49999.25;5071793;28;45359;-71
2024/01/24 09:37:23;;;;;;;;;7.00;2.00;;;;;-144.24;100.00;49604.28;5072481;28;64292;-70
2024/01/24 09:39:48;;;;;;;;;12.33;2.00;;;;;-144.24;100.00;49149.22;5071478;28;57721;-70
2024/01/24 09:42:20;;;;;;;;;5.00;2.33;;;;;-144.24;100.00;48866.59;5070752;27;46622;-70
2024/01/24 09:44:51;;;;;;;;;5.33;4.33;;;;;-144.24;100.00;48469.75;5070099;27;45822;-70
2024/01/24 09:47:17;;;;;;;;;10.67;5.33;;;;;-144.24;100.00;48956.78;5068004;28;45503;-70
2024/01/24 09:49:43;;;;;;;;;10.00;3.00;;;;;-144.24;100.00;49030.97;5069800;28;45478;-71
2024/01/24 09:52:10;;;;;;;;;10.00;1.00;;;;;-144.24;100.00;48894.66;5068018;28;47841;-71
2024/01/24 09:54:36;;;;;;;;;5.33;2.00;;;;;-144.24;100.00;48822.50;5039559;28;45616;-70
2024/01/24 09:57:02;;;;;;;;;9.67;3.00;;;;;-144.24;100.00;48754.34;5054444;28;48581;-70
2024/01/24 09:59:27;;;;;;;;;10.67;4.00;;;;;-144.24;100.00;48261.31;5053370;28;45428;-70
2024/01/24 10:01:53;;;;;;;;;4.00;2.67;;;;;-144.24;100.00;48066.94;5067900;28;58825;-70
2024/01/24 10:04:18;;;;;;;;;7.00;3.00;;;;;-144.24;100.00;47832.47;5064213;28;68826;-71
2024/01/24 10:06:45;;;;;;;;;7.67;3.00;;;;;-144.24;100.00;48317.44;5061396;28;46075;-70
2024/01/24 10:09:10;;;;;;;;;12.67;2.00;;;;;-144.24;100.00;49369.72;5161418;22;45687;-70
2024/01/24 10:11:36;;;;;;;;;10.33;4.33;;;;;-144.24;100.00;49730.59;5036772;28;61815;-71
2024/01/24 10:14:01;;;;;;;;;6.67;1.00;;;;;-144.24;100.00;50306.00;5045062;28;45530;-70
2024/01/24 10:16:27;;;;;;;;;10.00;4.00;;;;;-144.24;100.00;51613.56;5048925;28;63722;-69
2024/01/24 10:52:47;;;;;;;;;8.33;3.00;;;;;-144.24;100.00;57121.22;5045236;28;45390;-71
2024/01/24 10:55:13;;;;;;;;;2.67;1.33;;;;;-144.24;100.00;57496.84;5029744;28;45547;-72
2024/01/24 10:57:42;;;;;;;;;6.33;2.33;;;;;-144.24;100.00;57878.53;5048810;28;45534;-70
2024/01/24 11:00:15;;;;;;;;;8.67;1.67;;;;;-144.24;100.00;58511.41;5048941;28;46571;-72
2024/01/24 11:02:41;;;;;;;;;6.67;1.33;;;;;-144.24;100.00;59238.81;5048993;28;45309;-71
2024/01/24 11:05:10;;;;;;;;;9.33;3.67;;;;;-144.24;100.00;60766.44;5024908;28;45517;-71
2024/01/24 11:07:42;;;;;;;;;8.67;3.00;;;;;-144.24;100.00;61602.84;5033913;28;45430;-71
2024/01/24 11:10:10;;;;;;;;;5.67;2.67;;;;;-144.24;100.00;62741.16;5049086;28;47541;-70
2024/01/24 11:12:36;;;;;;;;;5.00;0.67;;;;;-144.24;100.00;63580.00;5051828;28;45512;-70
2024/01/24 11:15:08;;;;;;;;;13.00;3.00;;;;;-144.24;100.00;64201.69;5053299;28;63155;-69
2024/01/24 11:17:33;;;;;;;;;13.00;2.67;;;;;-144.24;100.00;65181.75;5048967;28;45663;-70
2024/01/24 11:20:05;;;;;;;;;4.67;3.00;;;;;-144.24;100.00;65739.28;5042883;28;46418;-70
2024/01/24 11:22:31;;;;;;;;;10.33;3.00;;;;;-144.24;100.00;66188.19;5045842;28;45537;-71
2024/01/24 11:24:58;;;;;;;;;5.00;2.33;;;;;-144.24;100.00;66913.00;5046386;28;67238;-72
2024/01/24 11:27:26;;;;;;;;;9.33;4.33;;;;;-144.24;100.00;68004.47;5053637;28;45382;-70
2024/01/24 11:29:52;;;;;;;;;3.33;3.33;;;;;-144.24;100.00;68749.75;5052351;28;46501;-69
2024/01/24 11:32:45;;;;;;;;;10.00;3.67;;;;;-144.24;100.00;69479.03;5055201;28;45635;-69
2024/01/24 11:35:26;;;;;;;;;10.00;4.00;;;;;-144.24;100.00;70204.44;5044029;28;45384;-71
2024/01/24 11:37:58;;;;;;;;;11.00;2.67;;;;;-144.24;100.00;70627.63;5049906;28;45134;-69